Ana Sayfa
METAR-TAF:

METAR-TAF

Havaalanları :

Soekarno-Hatta Uluslararası Havalimanı

Cakarta, Java, Endonezya

Enlem: 06-07S, Boylam: 106-39E, yükseklik: 8 m

Güncel hava durumu gözlemi

Rapor saat 18:00 UTC de 38 dakika önce yapıldı.
Rüzgar güneybatıdan 6 kt
Sıcaklık 26°C
Nem 79%
Basınç 1009 hPa
Görüş mesafesi: 5000 m
2200 ft yükseklikte az bulutlu

METAR: WIII 101800Z 23006KT 5000 FEW022 26/22 Q1009 NOSIG

Saat: 01:38 (18:38 UTC)

Tahmin

Rapor saat 17:00 UTC de 1 saat ve 38 dakika önce yapıldı.
Ayın 10'si saat 18 UTC'den ayın 11'si saat 24 UTC'ye kadar geçerli Tahmin
Rüzgar batıdan 5 kt
Görüş mesafesi: 7000 m
2000 ft yükseklikte parçalı bulutlu
Dönüşüyor
ayın 11'si saat 01 UTC'den ayın 11'si saat 03 UTC'ye kadar
Rüzgar kuzeydan 10 kt

TAF: WIII 101700Z 1018/1124 26005KT 7000 SCT020 BECMG 1101/1103 35010KT

4.000'den fazla havaalanı için hava durumu gözlemleri ve tahminleri (METAR ve TAF raporları).

Kullanılabilir istasyonlar harita üzerinde sarı ve kırmızı noktalarla gösterilir.

İstasyonun adını görmek için fareyi noktanın üzerinde gezdirin.

Sonrasında hava gözlem ve tahminlerini görmek için tıklayın.

Haritayı değiştirmek için: yaklaştırmak için siyah artı işaretli yeşil düğmeye ve uzaklaştırmak için de eksi işaretli düğmeye hızla tıklayın; bitişik haritalar için yeşil okları kullanın.


METAR-TAF: